Time;durP1;ratioP1;P1;durP2;ratioP2;P2;SDS_P1;SDS_P2;PMS_P1;PMS_P2;Temp;Humidity;BMP_temperature;BMP_pressure;BME280_temperature;BME280_humidity;BME280_pressure;Samples;Min_cycle;Max_cycle;Signal;HPM_P1;HPM_P2
2023/08/19 00:00:15;;;;;;;18.02;12.93;;;;;;;;;;6338554;22;20021;-86
2023/08/19 00:02:44;;;;;;;15.07;11.88;;;;;;;;;;6366751;22;20021;-86
2023/08/19 00:05:11;;;;;;;16.27;12.50;;;;;;;;;;6365844;22;20014;-86
2023/08/19 00:07:37;;;;;;;17.52;13.27;;;;;;;;;;6366659;22;20081;-86
2023/08/19 00:10:04;;;;;;;18.33;13.10;;;;;;;;;;6365792;22;20010;-86
2023/08/19 00:12:30;;;;;;;16.60;12.45;;;;;;;;;;6366844;22;20066;-86
2023/08/19 00:14:56;;;;;;;15.50;12.13;;;;;;;;;;6338327;22;20014;-86
2023/08/19 00:17:23;;;;;;;16.90;11.93;;;;;;;;;;6337447;22;20018;-86
2023/08/19 00:19:49;;;;;;;16.45;13.00;;;;;;;;;;6367040;22;20017;-86
2023/08/19 00:22:15;;;;;;;15.95;11.82;;;;;;;;;;6337779;22;20097;-86
2023/08/19 00:24:41;;;;;;;17.75;12.57;;;;;;;;;;6367052;22;20025;-86
2023/08/19 00:27:07;;;;;;;15.98;12.75;;;;;;;;;;6337436;22;20435;-86
2023/08/19 00:29:33;;;;;;;18.95;13.20;;;;;;;;;;6338756;22;20014;-86
2023/08/19 00:31:59;;;;;;;14.98;11.50;;;;;;;;;;6365910;22;20066;-86
2023/08/19 00:34:25;;;;;;;15.55;12.00;;;;;;;;;;6366724;22;20336;-86
2023/08/19 00:36:51;;;;;;;15.50;11.43;;;;;;;;;;6337855;22;20144;-86
2023/08/19 00:39:17;;;;;;;14.93;11.85;;;;;;;;;;6369901;22;20010;-86
2023/08/19 00:41:45;;;;;;;15.40;10.90;;;;;;;;;;6339711;22;20091;-86
2023/08/19 00:44:11;;;;;;;16.77;11.45;;;;;;;;;;6365524;22;20014;-86
2023/08/19 00:46:37;;;;;;;15.90;11.93;;;;;;;;;;6366027;22;20335;-86
2023/08/19 00:49:04;;;;;;;16.55;11.73;;;;;;;;;;6366155;22;20017;-87
2023/08/19 00:51:30;;;;;;;14.20;10.40;;;;;;;;;;6337711;22;20015;-86
2023/08/19 00:53:57;;;;;;;14.30;11.55;;;;;;;;;;6337934;22;20042;-87
2023/08/19 00:56:23;;;;;;;14.77;10.85;;;;;;;;;;6365909;22;20046;-86
2023/08/19 00:58:49;;;;;;;16.20;12.23;;;;;;;;;;6366671;22;20010;-86
2023/08/19 01:01:15;;;;;;;15.98;11.70;;;;;;;;;;6365123;22;20109;-87
2023/08/19 01:03:41;;;;;;;15.02;11.32;;;;;;;;;;6366785;22;20056;-86
2023/08/19 01:06:16;;;;;;;14.60;11.48;;;;;;;;;;6365172;22;20017;-87
2023/08/19 01:08:54;;;;;;;16.25;11.65;;;;;;;;;;6366667;22;20077;-87
2023/08/19 01:11:35;;;;;;;14.13;11.52;;;;;;;;;;6365860;22;20021;-87
2023/08/19 01:14:07;;;;;;;14.05;10.75;;;;;;;;;;6365382;22;20026;-87
2023/08/19 01:16:33;;;;;;;12.20;10.30;;;;;;;;;;6365595;22;20010;-87
2023/08/19 01:18:59;;;;;;;13.23;11.27;;;;;;;;;;6364574;22;20014;-87
2023/08/19 01:21:25;;;;;;;13.73;11.13;;;;;;;;;;6337646;22;20343;-87
2023/08/19 01:23:54;;;;;;;15.13;11.02;;;;;;;;;;6366147;22;20335;-87
2023/08/19 01:26:20;;;;;;;15.98;11.95;;;;;;;;;;6365041;22;20017;-87
2023/08/19 01:28:47;;;;;;;15.00;10.68;;;;;;;;;;6338398;22;20439;-87
2023/08/19 01:31:13;;;;;;;14.95;11.38;;;;;;;;;;6365042;22;20062;-87
2023/08/19 01:33:39;;;;;;;15.10;11.20;;;;;;;;;;6338057;22;20081;-87
2023/08/19 01:36:05;;;;;;;14.02;10.98;;;;;;;;;;6364935;22;20014;-87
2023/08/19 01:38:53;;;;;;;14.57;11.48;;;;;;;;;;6338158;22;20177;-87
2023/08/19 01:41:20;;;;;;;13.02;9.88;;;;;;;;;;6366009;22;20014;-87
2023/08/19 01:43:47;;;;;;;14.40;11.23;;;;;;;;;;6337829;22;20014;-87
2023/08/19 01:46:13;;;;;;;14.35;11.35;;;;;;;;;;6336977;22;20402;-87
2023/08/19 01:48:39;;;;;;;13.48;10.40;;;;;;;;;;6366380;22;20013;-87
2023/08/19 01:51:05;;;;;;;13.63;10.38;;;;;;;;;;6364195;22;20428;-87
2023/08/19 01:53:31;;;;;;;17.35;10.98;;;;;;;;;;6365989;22;20093;-87
2023/08/19 01:55:57;;;;;;;12.90;10.80;;;;;;;;;;6365299;22;20111;-87
2023/08/19 01:58:23;;;;;;;13.63;10.18;;;;;;;;;;6365077;22;20669;-88
2023/08/19 02:00:49;;;;;;;14.75;10.90;;;;;;;;;;6365814;22;20075;-87
2023/08/19 02:03:15;;;;;;;13.80;10.75;;;;;;;;;;6365027;22;20419;-87
2023/08/19 02:05:41;;;;;;;15.45;10.32;;;;;;;;;;6365309;22;20097;-87
2023/08/19 02:08:07;;;;;;;12.65;10.07;;;;;;;;;;6365242;22;20038;-87
2023/08/19 02:10:33;;;;;;;13.10;10.30;;;;;;;;;;6337556;22;20014;-87
2023/08/19 02:12:59;;;;;;;13.63;10.65;;;;;;;;;;6365081;22;20010;-88
2023/08/19 02:15:25;;;;;;;12.45;10.70;;;;;;;;;;6365962;22;20010;-87
2023/08/19 02:17:52;;;;;;;13.60;10.75;;;;;;;;;;6365148;22;20025;-87
2023/08/19 02:20:18;;;;;;;13.75;10.23;;;;;;;;;;6336998;22;20018;-88
2023/08/19 02:22:44;;;;;;;14.32;10.80;;;;;;;;;;6337543;22;20090;-87
2023/08/19 02:25:10;;;;;;;13.50;10.40;;;;;;;;;;6364621;22;20109;-87
2023/08/19 02:27:38;;;;;;;14.30;11.10;;;;;;;;;;6337668;22;20321;-87
2023/08/19 02:30:05;;;;;;;11.90;9.68;;;;;;;;;;6365321;22;20007;-87
2023/08/19 02:32:31;;;;;;;14.60;11.02;;;;;;;;;;6337053;22;20041;-87
2023/08/19 02:34:57;;;;;;;15.02;10.60;;;;;;;;;;6364630;22;20014;-86
2023/08/19 02:37:23;;;;;;;13.50;11.43;;;;;;;;;;6365691;22;20021;-86
2023/08/19 02:39:49;;;;;;;13.85;10.38;;;;;;;;;;6365295;22;20007;-86
2023/08/19 02:42:16;;;;;;;12.45;9.95;;;;;;;;;;6369099;22;20406;-86
2023/08/19 02:44:43;;;;;;;14.52;10.63;;;;;;;;;;6366884;22;20010;-87
2023/08/19 02:47:09;;;;;;;15.25;10.13;;;;;;;;;;6364415;22;20018;-87
2023/08/19 02:49:36;;;;;;;17.38;11.18;;;;;;;;;;6365961;22;20331;-87
2023/08/19 02:52:02;;;;;;;14.05;10.25;;;;;;;;;;6364857;22;20013;-87
2023/08/19 02:54:28;;;;;;;14.93;10.63;;;;;;;;;;6336437;22;20033;-86
2023/08/19 02:56:54;;;;;;;13.35;10.15;;;;;;;;;;6365361;22;20010;-87
2023/08/19 02:59:20;;;;;;;14.68;10.73;;;;;;;;;;6337429;22;20339;-87
2023/08/19 03:01:46;;;;;;;12.30;9.63;;;;;;;;;;6365246;22;20014;-86
2023/08/19 03:04:12;;;;;;;15.57;10.50;;;;;;;;;;6364665;22;20010;-87
2023/08/19 03:06:38;;;;;;;13.05;10.00;;;;;;;;;;6365106;22;20038;-87
2023/08/19 03:09:05;;;;;;;13.70;10.43;;;;;;;;;;6337521;22;20338;-86
2023/08/19 03:11:31;;;;;;;15.10;9.88;;;;;;;;;;6365016;22;20026;-87
2023/08/19 03:13:57;;;;;;;13.15;9.45;;;;;;;;;;6336762;22;20014;-86
2023/08/19 03:16:23;;;;;;;13.98;9.93;;;;;;;;;;6364770;22;20045;-87
2023/08/19 03:18:49;;;;;;;15.45;9.60;;;;;;;;;;6366139;22;20010;-87
2023/08/19 03:21:15;;;;;;;14.38;9.52;;;;;;;;;;6337864;22;20095;-86
2023/08/19 03:23:41;;;;;;;11.52;9.40;;;;;;;;;;6339484;22;20454;-87
2023/08/19 03:26:07;;;;;;;13.60;9.60;;;;;;;;;;6366833;22;20089;-87
2023/08/19 03:28:33;;;;;;;12.25;9.95;;;;;;;;;;6313290;22;20018;-87
2023/08/19 03:30:59;;;;;;;10.55;9.05;;;;;;;;;;6338364;22;20015;-87
2023/08/19 03:33:25;;;;;;;12.48;8.93;;;;;;;;;;6367123;22;20083;-87
2023/08/19 03:35:51;;;;;;;12.55;9.57;;;;;;;;;;6366349;22;20391;-87
2023/08/19 03:38:17;;;;;;;11.55;9.73;;;;;;;;;;6339169;22;20089;-87
2023/08/19 03:40:43;;;;;;;12.02;8.98;;;;;;;;;;6367608;22;20037;-86
2023/08/19 03:43:10;;;;;;;12.30;9.60;;;;;;;;;;6338122;22;20466;-87
2023/08/19 03:45:36;;;;;;;11.23;8.40;;;;;;;;;;6338948;22;20014;-86
2023/08/19 03:48:02;;;;;;;11.38;8.80;;;;;;;;;;6366280;22;20007;-86
2023/08/19 03:50:28;;;;;;;13.80;9.05;;;;;;;;;;6366487;22;20014;-86
2023/08/19 03:52:54;;;;;;;12.32;9.07;;;;;;;;;;6366873;22;20007;-86
2023/08/19 03:55:20;;;;;;;13.02;9.05;;;;;;;;;;6367124;22;20022;-86
2023/08/19 03:57:46;;;;;;;11.80;9.15;;;;;;;;;;6367311;22;20464;-86
2023/08/19 04:00:12;;;;;;;10.85;8.48;;;;;;;;;;6365700;22;20014;-86
2023/08/19 04:02:38;;;;;;;12.10;9.15;;;;;;;;;;6366660;22;20010;-87
2023/08/19 04:05:05;;;;;;;11.50;8.40;;;;;;;;;;6366024;22;20018;-87
2023/08/19 04:07:31;;;;;;;13.00;9.32;;;;;;;;;;6366967;22;20016;-87
2023/08/19 04:09:58;;;;;;;10.63;8.60;;;;;;;;;;6365912;22;20022;-87
2023/08/19 04:12:25;;;;;;;12.45;8.38;;;;;;;;;;6366876;22;20014;-87
2023/08/19 04:14:51;;;;;;;10.90;8.18;;;;;;;;;;6366408;22;20018;-87
2023/08/19 04:17:18;;;;;;;9.65;8.25;;;;;;;;;;6366202;22;20010;-87
2023/08/19 04:19:44;;;;;;;12.82;8.30;;;;;;;;;;6338556;22;20010;-87
2023/08/19 04:22:13;;;;;;;11.70;8.45;;;;;;;;;;6366047;22;20512;-88
2023/08/19 04:24:39;;;;;;;10.73;8.35;;;;;;;;;;6367288;22;20086;-87
2023/08/19 04:27:06;;;;;;;12.35;8.45;;;;;;;;;;6365988;22;20470;-87
2023/08/19 04:29:33;;;;;;;9.50;7.97;;;;;;;;;;6365701;22;20013;-88
2023/08/19 04:32:00;;;;;;;12.38;8.13;;;;;;;;;;6312234;22;20006;-87
2023/08/19 04:34:26;;;;;;;9.98;7.75;;;;;;;;;;6338157;22;20010;-87
2023/08/19 04:36:52;;;;;;;11.40;8.38;;;;;;;;;;6366763;22;20091;-87
2023/08/19 04:39:18;;;;;;;12.02;8.80;;;;;;;;;;6337998;22;20010;-87
2023/08/19 04:41:44;;;;;;;12.85;9.20;;;;;;;;;;6338786;22;20435;-88
2023/08/19 04:44:10;;;;;;;11.02;8.15;;;;;;;;;;6367228;22;20010;-87
2023/08/19 04:46:36;;;;;;;11.15;7.93;;;;;;;;;;6341230;22;20060;-87
2023/08/19 04:49:02;;;;;;;12.80;9.55;;;;;;;;;;6337600;22;20377;-86
2023/08/19 04:51:29;;;;;;;9.52;7.88;;;;;;;;;;6338120;22;20435;-88
2023/08/19 04:53:55;;;;;;;10.70;8.38;;;;;;;;;;6365703;22;20015;-88
2023/08/19 04:56:21;;;;;;;15.52;8.32;;;;;;;;;;6366535;22;20014;-88
2023/08/19 04:58:47;;;;;;;13.45;8.35;;;;;;;;;;6365838;22;20466;-88
2023/08/19 05:01:13;;;;;;;9.50;7.75;;;;;;;;;;6337019;22;20059;-88
2023/08/19 05:03:39;;;;;;;12.18;7.95;;;;;;;;;;6366436;22;20016;-88
2023/08/19 05:06:05;;;;;;;11.70;8.73;;;;;;;;;;6366022;22;20157;-88
2023/08/19 05:08:31;;;;;;;10.40;7.18;;;;;;;;;;6366430;22;20010;-88
2023/08/19 05:10:57;;;;;;;10.15;8.10;;;;;;;;;;6365585;22;20316;-88
2023/08/19 05:13:23;;;;;;;11.30;8.02;;;;;;;;;;6337748;22;20102;-88
2023/08/19 05:15:49;;;;;;;10.13;7.63;;;;;;;;;;6337409;22;20014;-88
2023/08/19 05:18:15;;;;;;;11.30;7.25;;;;;;;;;;6337492;22;20018;-85
2023/08/19 05:20:41;;;;;;;8.80;6.38;;;;;;;;;;6365813;22;20332;-90
2023/08/19 05:23:08;;;;;;;11.27;7.75;;;;;;;;;;6337758;22;20006;-89
2023/08/19 05:25:34;;;;;;;8.93;7.03;;;;;;;;;;6338216;22;20021;-90
2023/08/19 05:28:00;;;;;;;8.00;6.30;;;;;;;;;;6310228;22;20018;-87
2023/08/19 05:30:26;;;;;;;10.15;7.63;;;;;;;;;;6365487;22;20088;-89
2023/08/19 05:32:52;;;;;;;8.05;6.80;;;;;;;;;;6365771;22;20010;-87
2023/08/19 05:35:18;;;;;;;10.80;7.45;;;;;;;;;;6365628;22;20075;-87
2023/08/19 05:37:44;;;;;;;10.00;7.47;;;;;;;;;;6365860;22;20036;-85
2023/08/19 05:40:10;;;;;;;9.30;6.50;;;;;;;;;;6333843;22;20046;-86
2023/08/19 05:42:36;;;;;;;8.68;6.65;;;;;;;;;;6363855;22;20072;-85
2023/08/19 05:45:03;;;;;;;9.18;7.13;;;;;;;;;;6363761;22;20462;-85
2023/08/19 05:47:29;;;;;;;9.38;7.18;;;;;;;;;;6365225;22;20071;-85
2023/08/19 05:49:55;;;;;;;9.35;6.72;;;;;;;;;;6365243;22;20017;-87
2023/08/19 05:52:21;;;;;;;8.82;6.65;;;;;;;;;;6365983;22;20013;-87
2023/08/19 05:54:47;;;;;;;9.55;7.32;;;;;;;;;;6365429;22;20386;-87
2023/08/19 05:57:13;;;;;;;8.98;6.95;;;;;;;;;;6333902;22;20045;-84
2023/08/19 05:59:39;;;;;;;9.95;6.50;;;;;;;;;;6311604;22;20025;-86
2023/08/19 06:02:06;;;;;;;7.57;6.70;;;;;;;;;;6365580;22;20010;-86
2023/08/19 06:04:32;;;;;;;7.38;6.60;;;;;;;;;;6365174;22;20372;-85
2023/08/19 06:06:58;;;;;;;8.20;6.80;;;;;;;;;;6335546;22;20093;-85
2023/08/19 06:09:24;;;;;;;7.50;6.45;;;;;;;;;;6365972;22;20014;-88
2023/08/19 06:11:51;;;;;;;7.25;6.30;;;;;;;;;;6364360;22;20010;-86
2023/08/19 06:14:17;;;;;;;9.80;6.32;;;;;;;;;;6364584;22;20063;-86
2023/08/19 06:16:44;;;;;;;8.25;7.03;;;;;;;;;;6363971;22;20081;-85
2023/08/19 06:19:10;;;;;;;9.65;6.60;;;;;;;;;;6363405;22;20095;-85
2023/08/19 06:21:36;;;;;;;8.45;6.30;;;;;;;;;;6365472;22;20055;-84
2023/08/19 06:24:02;;;;;;;9.50;6.28;;;;;;;;;;6364784;22;20034;-86
2023/08/19 06:26:28;;;;;;;7.22;5.80;;;;;;;;;;6336754;22;20178;-85
2023/08/19 06:28:54;;;;;;;7.22;5.60;;;;;;;;;;6364699;22;20034;-88
2023/08/19 06:31:21;;;;;;;7.95;6.10;;;;;;;;;;6338092;22;20094;-93
2023/08/19 06:33:47;;;;;;;7.80;6.00;;;;;;;;;;6338390;22;20010;-91
2023/08/19 06:36:15;;;;;;;10.07;6.28;;;;;;;;;;6337442;22;20400;-90
2023/08/19 06:38:42;;;;;;;9.40;6.97;;;;;;;;;;6311539;22;20014;-91
2023/08/19 06:41:09;;;;;;;7.45;5.95;;;;;;;;;;6364564;22;20010;-94
2023/08/19 06:43:37;;;;;;;8.95;6.40;;;;;;;;;;6365546;22;20097;-91
2023/08/19 06:46:03;;;;;;;8.13;6.28;;;;;;;;;;6336390;22;20068;-91
2023/08/19 06:48:29;;;;;;;10.93;6.20;;;;;;;;;;6367285;22;20164;-89
2023/08/19 06:50:56;;;;;;;7.55;5.75;;;;;;;;;;6365667;22;20331;-86
2023/08/19 06:53:22;;;;;;;7.15;6.13;;;;;;;;;;6364868;22;20014;-86
2023/08/19 06:55:54;;;;;;;8.25;5.10;;;;;;;;;;6339426;22;20025;-85
2023/08/19 06:58:25;;;;;;;8.73;6.22;;;;;;;;;;6366417;22;20018;-86
2023/08/19 07:00:53;;;;;;;6.10;5.03;;;;;;;;;;6337958;22;20010;-88
2023/08/19 07:03:19;;;;;;;6.70;5.63;;;;;;;;;;6338292;22;20447;-89
2023/08/19 07:05:46;;;;;;;8.60;5.45;;;;;;;;;;6339738;22;20018;-90
2023/08/19 07:08:14;;;;;;;6.95;4.90;;;;;;;;;;6337759;22;20010;-89
2023/08/19 07:10:40;;;;;;;7.97;5.47;;;;;;;;;;6367423;22;20052;-89
2023/08/19 07:13:06;;;;;;;7.32;5.13;;;;;;;;;;6367283;22;20014;-90
2023/08/19 07:15:33;;;;;;;6.15;4.72;;;;;;;;;;6339363;22;20017;-90
2023/08/19 07:18:00;;;;;;;8.27;5.03;;;;;;;;;;6337368;22;20021;-89
2023/08/19 07:20:26;;;;;;;7.63;5.07;;;;;;;;;;6367961;22;20021;-90
2023/08/19 07:22:53;;;;;;;7.32;5.07;;;;;;;;;;6367047;22;20017;-91
2023/08/19 07:25:19;;;;;;;7.20;5.53;;;;;;;;;;6367715;22;20085;-91
2023/08/19 07:27:46;;;;;;;8.73;5.40;;;;;;;;;;6367973;22;20011;-91
2023/08/19 07:30:12;;;;;;;9.88;5.65;;;;;;;;;;6338959;22;20014;-89
2023/08/19 07:32:39;;;;;;;6.65;5.20;;;;;;;;;;6368047;22;20304;-85
2023/08/19 07:35:05;;;;;;;6.32;5.35;;;;;;;;;;6338624;22;20014;-85
2023/08/19 07:37:32;;;;;;;7.28;5.60;;;;;;;;;;6367015;22;20033;-85
2023/08/19 07:39:59;;;;;;;9.48;5.97;;;;;;;;;;6339320;22;20018;-86
2023/08/19 07:42:25;;;;;;;7.72;5.78;;;;;;;;;;6365922;22;20010;-86
2023/08/19 07:44:51;;;;;;;7.22;5.20;;;;;;;;;;6367132;22;20053;-86
2023/08/19 07:47:17;;;;;;;8.10;5.55;;;;;;;;;;6365368;22;20010;-88
2023/08/19 07:49:43;;;;;;;6.05;4.95;;;;;;;;;;6338487;22;20017;-89
2023/08/19 07:52:09;;;;;;;5.25;4.70;;;;;;;;;;6365203;22;20395;-86
2023/08/19 07:54:35;;;;;;;5.60;4.78;;;;;;;;;;6367179;22;20077;-87
2023/08/19 07:57:01;;;;;;;5.55;4.95;;;;;;;;;;6366629;22;20006;-87
2023/08/19 07:59:27;;;;;;;8.45;4.72;;;;;;;;;;6338802;22;20029;-85
2023/08/19 08:01:56;;;;;;;4.95;4.43;;;;;;;;;;6365861;22;20454;-87
2023/08/19 08:04:22;;;;;;;5.38;4.53;;;;;;;;;;6369257;22;20006;-92
2023/08/19 08:06:51;;;;;;;6.93;4.53;;;;;;;;;;6367975;22;20040;-84
2023/08/19 08:09:18;;;;;;;5.35;4.28;;;;;;;;;;6366358;22;20062;-89
2023/08/19 08:11:45;;;;;;;6.35;5.00;;;;;;;;;;6366920;22;20010;-89
2023/08/19 08:14:11;;;;;;;6.70;4.57;;;;;;;;;;6367511;22;20052;-92
2023/08/19 08:16:37;;;;;;;5.85;4.70;;;;;;;;;;6368701;22;20071;-91
2023/08/19 08:19:03;;;;;;;5.13;4.60;;;;;;;;;;6368960;22;20340;-93
2023/08/19 08:21:29;;;;;;;4.85;4.32;;;;;;;;;;6367299;22;20040;-90
2023/08/19 08:23:55;;;;;;;5.38;4.28;;;;;;;;;;6339434;22;20060;-89
2023/08/19 08:26:22;;;;;;;6.90;4.75;;;;;;;;;;6339433;22;20074;-87
2023/08/19 08:28:48;;;;;;;6.20;3.78;;;;;;;;;;6339570;22;20089;-91
2023/08/19 08:31:14;;;;;;;5.95;3.95;;;;;;;;;;6338195;22;20318;-90
2023/08/19 08:33:40;;;;;;;5.28;4.07;;;;;;;;;;6339532;22;20010;-90
2023/08/19 08:36:06;;;;;;;7.25;4.22;;;;;;;;;;6338709;22;20025;-91
2023/08/19 08:38:32;;;;;;;6.38;4.40;;;;;;;;;;6338699;22;20018;-90
2023/08/19 08:41:02;;;;;;;5.35;4.82;;;;;;;;;;6338137;22;20010;-93
2023/08/19 08:43:29;;;;;;;5.60;4.40;;;;;;;;;;6367043;22;20041;-92
2023/08/19 08:45:55;;;;;;;5.07;4.07;;;;;;;;;;6365741;22;20317;-88
2023/08/19 08:48:22;;;;;;;6.32;4.70;;;;;;;;;;6338116;22;20010;-90
2023/08/19 08:50:48;;;;;;;6.68;4.22;;;;;;;;;;6368451;22;20010;-92
2023/08/19 08:53:16;;;;;;;6.53;5.18;;;;;;;;;;6343372;22;20075;-90
2023/08/19 08:55:42;;;;;;;7.63;4.57;;;;;;;;;;6366015;22;20018;-86
2023/08/19 08:58:09;;;;;;;6.03;3.97;;;;;;;;;;6365524;22;20128;-89
2023/08/19 09:00:37;;;;;;;4.93;4.10;;;;;;;;;;6366344;22;20357;-88
2023/08/19 09:03:04;;;;;;;4.25;3.83;;;;;;;;;;6366293;22;20025;-89
2023/08/19 09:05:31;;;;;;;6.13;4.03;;;;;;;;;;6365848;22;20022;-90
2023/08/19 09:07:58;;;;;;;6.60;4.28;;;;;;;;;;6366144;22;20006;-91
2023/08/19 09:10:27;;;;;;;4.43;4.03;;;;;;;;;;6368829;22;20373;-92
2023/08/19 09:12:58;;;;;;;4.13;3.72;;;;;;;;;;6341819;22;20014;-96
2023/08/19 09:15:27;;;;;;;4.80;4.13;;;;;;;;;;6388500;22;20021;-96
2023/08/19 09:17:53;;;;;;;5.55;4.32;;;;;;;;;;6389393;22;20018;-96
2023/08/19 12:34:24;;;;;;;16.90;14.98;;;;;;;;;;6368861;22;20093;-87
2023/08/19 12:36:51;;;;;;;19.23;14.93;;;;;;;;;;6339483;22;20033;-89
2023/08/19 12:39:17;;;;;;;24.13;17.23;;;;;;;;;;6336438;22;20309;-91
2023/08/19 12:41:44;;;;;;;23.58;19.30;;;;;;;;;;6337626;22;20018;-91
2023/08/19 12:44:10;;;;;;;25.13;20.92;;;;;;;;;;6366614;22;20010;-95
2023/08/19 12:46:43;;;;;;;24.25;18.80;;;;;;;;;;6367542;22;20436;-87
2023/08/19 12:49:09;;;;;;;32.65;23.23;;;;;;;;;;6366184;22;20014;-88
2023/08/19 12:51:35;;;;;;;32.25;21.92;;;;;;;;;;6365224;22;20010;-88
2023/08/19 12:54:01;;;;;;;30.35;22.38;;;;;;;;;;6365051;22;20018;-90
2023/08/19 12:56:27;;;;;;;31.77;22.42;;;;;;;;;;6365865;22;20014;-88
2023/08/19 12:58:53;;;;;;;30.67;21.13;;;;;;;;;;6366146;22;20018;-89
2023/08/19 13:01:19;;;;;;;28.15;19.75;;;;;;;;;;6366914;22;20110;-90
2023/08/19 13:03:45;;;;;;;23.08;16.65;;;;;;;;;;6372461;22;20006;-89
2023/08/19 13:06:11;;;;;;;19.27;14.57;;;;;;;;;;6369561;22;20414;-91
2023/08/19 13:08:38;;;;;;;12.30;9.98;;;;;;;;;;6339422;22;20030;-90
2023/08/19 13:11:04;;;;;;;13.30;8.57;;;;;;;;;;6367247;22;20033;-91
2023/08/19 13:13:30;;;;;;;9.90;6.88;;;;;;;;;;6366643;22;20078;-94
2023/08/19 13:15:56;;;;;;;10.10;6.03;;;;;;;;;;6338155;22;20447;-88
2023/08/19 13:18:23;;;;;;;6.68;5.32;;;;;;;;;;6365605;22;20022;-88
2023/08/19 13:20:51;;;;;;;11.90;8.70;;;;;;;;;;6366143;22;20059;-89
2023/08/19 13:23:17;;;;;;;10.90;7.50;;;;;;;;;;6337077;22;20070;-90
2023/08/19 13:25:42;;;;;;;11.90;8.00;;;;;;;;;;6338703;22;20018;-88
2023/08/19 13:28:09;;;;;;;11.82;9.57;;;;;;;;;;6365745;22;20473;-94
2023/08/19 13:30:35;;;;;;;14.07;8.57;;;;;;;;;;6367731;22;20305;-89
2023/08/19 13:33:03;;;;;;;12.15;7.97;;;;;;;;;;6365100;22;20118;-87
2023/08/19 13:35:30;;;;;;;8.57;4.97;;;;;;;;;;6367399;22;20049;-94
2023/08/19 13:37:56;;;;;;;5.72;4.10;;;;;;;;;;6367320;22;20014;-94
2023/08/19 13:40:22;;;;;;;5.63;3.90;;;;;;;;;;6369341;22;20019;-96
2023/08/19 13:42:48;;;;;;;4.65;3.40;;;;;;;;;;6367364;22;20014;-95
2023/08/19 13:45:14;;;;;;;3.67;2.67;;;;;;;;;;6364729;22;20010;-90
2023/08/19 13:47:40;;;;;;;7.20;4.00;;;;;;;;;;6336003;22;20024;-90
2023/08/19 13:50:06;;;;;;;5.90;3.83;;;;;;;;;;6362505;22;20806;-88
2023/08/19 13:52:39;;;;;;;4.78;3.45;;;;;;;;;;6362051;22;20339;-87
2023/08/19 13:55:10;;;;;;;3.97;3.20;;;;;;;;;;6364086;22;20016;-89
2023/08/19 13:57:36;;;;;;;5.85;3.70;;;;;;;;;;6337890;22;20053;-88
2023/08/19 14:00:14;;;;;;;5.18;3.05;;;;;;;;;;6365726;22;20304;-89
2023/08/19 14:02:41;;;;;;;4.15;3.15;;;;;;;;;;6335848;22;20011;-88
2023/08/19 14:05:09;;;;;;;4.25;3.75;;;;;;;;;;6366678;22;20018;-94
2023/08/19 14:07:35;;;;;;;5.55;3.38;;;;;;;;;;6366050;22;20018;-88
2023/08/19 14:10:01;;;;;;;4.97;3.10;;;;;;;;;;6366847;22;20094;-90
2023/08/19 14:12:27;;;;;;;5.50;3.90;;;;;;;;;;6310931;22;20014;-90
2023/08/19 14:14:53;;;;;;;3.83;2.95;;;;;;;;;;6366256;22;20015;-91
2023/08/19 14:17:19;;;;;;;4.13;2.95;;;;;;;;;;6369740;22;20014;-92
2023/08/19 14:19:45;;;;;;;5.00;3.60;;;;;;;;;;6367474;22;20006;-96
2023/08/19 14:22:11;;;;;;;5.88;3.58;;;;;;;;;;6365089;22;20006;-89
2023/08/19 14:24:37;;;;;;;5.65;3.67;;;;;;;;;;6365444;22;20010;-93
2023/08/19 14:27:03;;;;;;;3.85;3.25;;;;;;;;;;6339800;22;20085;-95
2023/08/19 14:29:29;;;;;;;4.43;3.92;;;;;;;;;;6380326;22;20015;-96
2023/08/19 14:31:55;;;;;;;4.70;4.20;;;;;;;;;;6339961;22;20203;-92
2023/08/19 14:34:21;;;;;;;8.63;4.97;;;;;;;;;;6363352;22;20156;-89
2023/08/19 14:36:47;;;;;;;5.85;4.03;;;;;;;;;;6366013;22;20010;-92
2023/08/19 14:39:13;;;;;;;5.47;4.53;;;;;;;;;;6363469;22;20024;-88
2023/08/19 14:41:39;;;;;;;5.30;3.78;;;;;;;;;;6365025;22;20097;-89
2023/08/19 14:44:06;;;;;;;6.75;4.63;;;;;;;;;;6363800;22;20025;-90
2023/08/19 14:46:33;;;;;;;7.38;4.22;;;;;;;;;;6335294;22;20018;-91
2023/08/19 14:48:59;;;;;;;6.63;4.00;;;;;;;;;;6335057;22;20010;-91
2023/08/19 14:51:25;;;;;;;5.00;3.80;;;;;;;;;;6364549;22;20017;-90
2023/08/19 14:53:51;;;;;;;7.55;3.95;;;;;;;;;;6334619;22;20365;-88
2023/08/19 14:56:17;;;;;;;5.65;4.25;;;;;;;;;;6335008;22;20014;-88
2023/08/19 14:58:43;;;;;;;6.68;4.10;;;;;;;;;;6335843;22;20063;-90
2023/08/19 15:01:10;;;;;;;4.13;3.55;;;;;;;;;;6363629;22;20093;-88
2023/08/19 15:03:36;;;;;;;8.52;4.57;;;;;;;;;;6363985;22;20014;-92
2023/08/19 15:06:02;;;;;;;9.88;4.97;;;;;;;;;;6365136;22;20018;-92
2023/08/19 15:08:28;;;;;;;7.60;5.55;;;;;;;;;;6368359;22;20018;-92
2023/08/19 15:10:54;;;;;;;6.78;4.80;;;;;;;;;;6374918;22;20014;-92
2023/08/19 15:13:20;;;;;;;7.32;4.30;;;;;;;;;;6366084;22;20021;-89
2023/08/19 15:15:46;;;;;;;7.00;4.82;;;;;;;;;;6338545;22;20063;-91
2023/08/19 15:18:14;;;;;;;10.93;5.18;;;;;;;;;;6365030;22;20046;-88
2023/08/19 15:20:40;;;;;;;10.55;5.65;;;;;;;;;;6365053;22;20014;-96
2023/08/19 15:23:06;;;;;;;8.07;6.85;;;;;;;;;;6366099;22;20018;-94
2023/08/19 15:25:32;;;;;;;9.40;6.18;;;;;;;;;;6368845;22;20053;-92
2023/08/19 15:27:58;;;;;;;10.30;6.20;;;;;;;;;;6339272;22;20011;-91
2023/08/19 15:30:24;;;;;;;7.93;5.57;;;;;;;;;;6366455;22;20014;-91
2023/08/19 15:32:50;;;;;;;10.00;6.53;;;;;;;;;;6339823;22;20108;-93
2023/08/19 15:35:17;;;;;;;7.57;5.00;;;;;;;;;;6367487;22;20174;-92
2023/08/19 15:37:44;;;;;;;9.38;5.88;;;;;;;;;;6366503;22;20017;-90
2023/08/19 15:40:10;;;;;;;7.40;5.75;;;;;;;;;;6341947;22;20107;-94
2023/08/19 15:42:37;;;;;;;6.20;5.10;;;;;;;;;;6369555;22;20033;-91
2023/08/19 15:45:03;;;;;;;8.00;4.75;;;;;;;;;;6363475;22;20014;-88
2023/08/19 15:47:29;;;;;;;6.63;4.03;;;;;;;;;;6337247;22;20011;-88
2023/08/19 15:49:57;;;;;;;3.85;3.13;;;;;;;;;;6336497;22;20038;-88
2023/08/19 15:52:23;;;;;;;6.30;4.00;;;;;;;;;;6337894;22;20043;-92
2023/08/19 15:54:49;;;;;;;5.35;3.22;;;;;;;;;;6364201;22;20016;-91
2023/08/19 15:57:15;;;;;;;4.78;2.63;;;;;;;;;;6339680;22;20075;-94
2023/08/19 15:59:41;;;;;;;6.25;3.20;;;;;;;;;;6368589;22;20011;-91
2023/08/19 16:02:07;;;;;;;5.22;2.75;;;;;;;;;;6365777;22;20042;-92
2023/08/19 16:04:33;;;;;;;4.72;2.20;;;;;;;;;;6339358;22;20014;-91
2023/08/19 16:07:01;;;;;;;3.47;2.50;;;;;;;;;;6368043;22;20403;-90
2023/08/19 16:09:27;;;;;;;6.30;2.15;;;;;;;;;;6342315;22;20515;-92
2023/08/19 16:11:53;;;;;;;4.22;1.90;;;;;;;;;;6344781;22;20017;-92
2023/08/19 16:14:20;;;;;;;3.95;2.13;;;;;;;;;;6370840;22;20013;-91
2023/08/19 16:16:45;;;;;;;3.97;2.03;;;;;;;;;;6371844;22;20014;-94
2023/08/19 16:19:12;;;;;;;5.22;2.20;;;;;;;;;;6365811;22;20021;-95
2023/08/19 16:21:38;;;;;;;4.13;1.80;;;;;;;;;;6370501;22;20014;-91
2023/08/19 16:24:04;;;;;;;2.92;1.88;;;;;;;;;;6367278;22;20052;-91
2023/08/19 16:26:30;;;;;;;2.30;1.63;;;;;;;;;;6368192;22;20592;-93
2023/08/19 16:28:56;;;;;;;5.28;2.30;;;;;;;;;;6340179;22;20010;-90
2023/08/19 16:31:22;;;;;;;2.15;1.77;;;;;;;;;;6368237;22;20376;-93
2023/08/19 16:33:48;;;;;;;2.95;1.83;;;;;;;;;;6368125;22;20037;-91
2023/08/19 16:36:14;;;;;;;3.50;1.90;;;;;;;;;;6339145;22;20075;-89
2023/08/19 16:38:40;;;;;;;4.28;1.98;;;;;;;;;;6366184;22;20018;-93
2023/08/19 16:41:08;;;;;;;6.60;2.55;;;;;;;;;;6370742;22;20006;-96
2023/08/19 16:43:34;;;;;;;5.95;2.10;;;;;;;;;;6372352;22;20010;-92
2023/08/19 16:46:00;;;;;;;5.40;2.20;;;;;;;;;;6345427;22;20320;-93
2023/08/19 16:48:26;;;;;;;5.47;1.83;;;;;;;;;;6369061;22;20446;-95
2023/08/19 16:50:52;;;;;;;3.50;1.63;;;;;;;;;;6379107;22;20014;-92
2023/08/19 16:53:19;;;;;;;5.65;2.00;;;;;;;;;;6372753;22;20021;-96
2023/08/19 16:55:53;;;;;;;5.55;2.10;;;;;;;;;;6369855;22;20041;-91
2023/08/19 16:58:19;;;;;;;5.28;1.63;;;;;;;;;;6370262;22;20014;-92
2023/08/19 17:00:45;;;;;;;4.28;1.80;;;;;;;;;;6342708;22;20017;-91
2023/08/19 17:03:11;;;;;;;4.18;1.45;;;;;;;;;;6371404;22;20006;-88
2023/08/19 17:05:37;;;;;;;4.72;1.35;;;;;;;;;;6371366;22;20020;-92
2023/08/19 17:08:03;;;;;;;4.60;1.48;;;;;;;;;;6371091;22;20006;-94
2023/08/19 17:10:30;;;;;;;3.55;1.10;;;;;;;;;;6342768;22;20089;-96
2023/08/19 17:12:56;;;;;;;3.40;1.40;;;;;;;;;;6373790;22;20054;-94
2023/08/19 17:15:22;;;;;;;3.22;1.08;;;;;;;;;;6378070;22;20014;-91
2023/08/19 17:17:48;;;;;;;2.50;1.30;;;;;;;;;;6374355;22;20014;-94
2023/08/19 17:20:14;;;;;;;2.85;1.48;;;;;;;;;;6339660;22;20056;-93
2023/08/19 17:22:40;;;;;;;4.40;1.20;;;;;;;;;;6338176;22;20018;-92
2023/08/19 17:25:10;;;;;;;3.00;1.15;;;;;;;;;;6340976;22;20045;-93
2023/08/19 17:27:36;;;;;;;5.18;1.50;;;;;;;;;;6370109;22;20440;-92
2023/08/19 17:30:02;;;;;;;4.43;1.23;;;;;;;;;;6341623;22;20062;-92
2023/08/19 17:32:30;;;;;;;4.70;2.08;;;;;;;;;;6372516;22;20575;-96
2023/08/19 17:34:56;;;;;;;4.60;1.48;;;;;;;;;;6342668;22;20014;-93
2023/08/19 17:37:22;;;;;;;4.70;1.27;;;;;;;;;;6369936;22;20022;-94
2023/08/19 17:39:51;;;;;;;2.42;1.15;;;;;;;;;;6370944;22;20010;-95
2023/08/19 17:42:18;;;;;;;4.85;1.55;;;;;;;;;;6370722;22;20011;-92